Accueil
METAR-TAF:

METAR-TAF

Aéroports :

Jammu, Inde

latitude: 32-41-21N, longitude: 74-50-15E, altitude: 314 m

METAR: absent

Heure: 04:27 (22:57 UTC)

Prévision

Le bulletin a été fait il y a 13 heures et 27 minutes, à 09:30 UTC
Prévision valable du 22 à 18 UTC au 23 à 12 UTC
Vent 5 kt de ouest
Visibilité: 6000 m
Quelques nuages à une hauteur de 3000 ft
Evoluant progressivement
du 23 à 01 UTC au 23 à 03 UTC
Vent 2 kt de direction variable
Visibilité: 2500 m
brume
Evoluant progressivement
du 23 à 04 UTC au 23 à 12 UTC
Vent 5 kt de ouest/nord-ouest
Visibilité: 6000 m
Quelques nuages à une hauteur de 2500 ft

TAF: VIJU 220930Z 2218/2312 28005KT 6000 FEW030 BECMG 2301/2303 VRB02KT 2500 BR BECMG 2304/2312 29005KT 6000 FEW025

Observations et prévisions météorologiques de plus de 4000 aéroports (messages METAR et TAF).

Les stations disponibles sont représentées par des disques jaunes et rouges sur la carte.

Passer la souris dessus pour voir le nom de la station.

Cliquer dessus pour voir les observations et prévisions météorologiques.

Pour changer de carte: cliquez sur les boutons verts avec une croix noire pour zoomer, sur le bouton vert avec un tiret pour effectuer un zoom arrière, ou sur les flèches vertes pour les cartes adjacentes.


METAR-TAF: